sensor_id;sensor_type;location;lat;lon;timestamp;P1;durP1;ratioP1;P2;durP2;ratioP2
61570;SDS011;47463;49.884;10.010;2022-10-20T00:00:00;15.2;;;11;;
61570;SDS011;47463;49.884;10.010;2022-10-20T00:05:00;14.2;;;10.6;;
61570;SDS011;47463;49.884;10.010;2022-10-20T00:10:00;17.6;;;11.7;;
61570;SDS011;47463;49.884;10.010;2022-10-20T00:15:00;17.6;;;11.7;;
61570;SDS011;47463;49.884;10.010;2022-10-20T00:20:00;18;;;11.3;;
61570;SDS011;47463;49.884;10.010;2022-10-20T00:25:00;19;;;12;;
61570;SDS011;47463;49.884;10.010;2022-10-20T00:30:00;16.1;;;11.4;;
61570;SDS011;47463;49.884;10.010;2022-10-20T00:35:00;14;;;11.2;;
61570;SDS011;47463;49.884;10.010;2022-10-20T00:40:00;20.4;;;12.9;;
61570;SDS011;47463;49.884;10.010;2022-10-20T00:45:00;20.4;;;12.9;;
61570;SDS011;47463;49.884;10.010;2022-10-20T00:50:00;18.2;;;11.2;;
61570;SDS011;47463;49.884;10.010;2022-10-20T00:55:00;17.4;;;11.9;;
61570;SDS011;47463;49.884;10.010;2022-10-20T01:00:00;18.1;;;12.5;;
61570;SDS011;47463;49.884;10.010;2022-10-20T01:05:00;15.8;;;11.2;;
61570;SDS011;47463;49.884;10.010;2022-10-20T01:10:00;18.6;;;10.9;;
61570;SDS011;47463;49.884;10.010;2022-10-20T01:15:01;18.6;;;10.9;;
61570;SDS011;47463;49.884;10.010;2022-10-20T01:20:06;17.5;;;12.5;;
61570;SDS011;47463;49.884;10.010;2022-10-20T01:25:02;20.2;;;12.5;;
61570;SDS011;47463;49.884;10.010;2022-10-20T01:30:05;16.4;;;11.6;;
61570;SDS011;47463;49.884;10.010;2022-10-20T01:35:00;18.4;;;12.4;;
61570;SDS011;47463;49.884;10.010;2022-10-20T01:40:01;34.6;;;12.2;;
61570;SDS011;47463;49.884;10.010;2022-10-20T01:45:00;34.6;;;12.2;;
61570;SDS011;47463;49.884;10.010;2022-10-20T01:50:00;21.2;;;12.9;;
61570;SDS011;47463;49.884;10.010;2022-10-20T01:55:00;16.7;;;12.4;;
61570;SDS011;47463;49.884;10.010;2022-10-20T02:00:02;20.7;;;13.4;;
61570;SDS011;47463;49.884;10.010;2022-10-20T02:05:04;18.8;;;12.6;;
61570;SDS011;47463;49.884;10.010;2022-10-20T02:10:02;19.5;;;13.4;;
61570;SDS011;47463;49.884;10.010;2022-10-20T02:15:00;19.5;;;13.4;;
61570;SDS011;47463;49.884;10.010;2022-10-20T02:20:00;16.4;;;12.5;;
61570;SDS011;47463;49.884;10.010;2022-10-20T02:25:00;18;;;12.6;;
61570;SDS011;47463;49.884;10.010;2022-10-20T02:30:01;19.8;;;14.2;;
61570;SDS011;47463;49.884;10.010;2022-10-20T02:35:02;18.7;;;13.1;;
61570;SDS011;47463;49.884;10.010;2022-10-20T02:40:00;20.2;;;14.1;;
61570;SDS011;47463;49.884;10.010;2022-10-20T02:45:00;20.2;;;14.1;;
61570;SDS011;47463;49.884;10.010;2022-10-20T02:50:00;20;;;13.3;;
61570;SDS011;47463;49.884;10.010;2022-10-20T02:55:00;17.3;;;13.2;;
61570;SDS011;47463;49.884;10.010;2022-10-20T03:00:00;21.5;;;13.2;;
61570;SDS011;47463;49.884;10.010;2022-10-20T03:05:00;21.7;;;13.5;;
61570;SDS011;47463;49.884;10.010;2022-10-20T03:10:00;19.6;;;12.3;;
61570;SDS011;47463;49.884;10.010;2022-10-20T03:15:00;19.6;;;12.3;;
61570;SDS011;47463;49.884;10.010;2022-10-20T03:20:00;18.9;;;12.7;;
61570;SDS011;47463;49.884;10.010;2022-10-20T03:25:00;23.1;;;12.9;;
61570;SDS011;47463;49.884;10.010;2022-10-20T03:30:00;21.2;;;13.6;;
61570;SDS011;47463;49.884;10.010;2022-10-20T03:35:00;25.5;;;16.3;;
61570;SDS011;47463;49.884;10.010;2022-10-20T03:40:00;18.6;;;13.2;;
61570;SDS011;47463;49.884;10.010;2022-10-20T03:45:00;18.6;;;13.2;;
61570;SDS011;47463;49.884;10.010;2022-10-20T03:50:00;23;;;13.7;;
61570;SDS011;47463;49.884;10.010;2022-10-20T03:55:00;17.3;;;12.9;;
61570;SDS011;47463;49.884;10.010;2022-10-20T04:00:00;19.2;;;13.2;;
61570;SDS011;47463;49.884;10.010;2022-10-20T04:05:00;17.8;;;12.6;;
61570;SDS011;47463;49.884;10.010;2022-10-20T04:10:00;18.9;;;13.3;;
61570;SDS011;47463;49.884;10.010;2022-10-20T04:15:00;18.9;;;13.3;;
61570;SDS011;47463;49.884;10.010;2022-10-20T04:20:00;21.7;;;13.9;;
61570;SDS011;47463;49.884;10.010;2022-10-20T04:25:00;34.4;;;18.6;;
61570;SDS011;47463;49.884;10.010;2022-10-20T04:30:00;20.2;;;14.5;;
61570;SDS011;47463;49.884;10.010;2022-10-20T04:35:00;21.4;;;14.6;;
61570;SDS011;47463;49.884;10.010;2022-10-20T04:40:00;25;;;14;;
61570;SDS011;47463;49.884;10.010;2022-10-20T04:45:00;25;;;14;;
61570;SDS011;47463;49.884;10.010;2022-10-20T04:50:00;29.2;;;14.2;;
61570;SDS011;47463;49.884;10.010;2022-10-20T04:55:00;21.8;;;14.6;;
61570;SDS011;47463;49.884;10.010;2022-10-20T05:00:00;25.9;;;15.6;;
61570;SDS011;47463;49.884;10.010;2022-10-20T05:05:00;20.3;;;14.6;;
61570;SDS011;47463;49.884;10.010;2022-10-20T05:10:00;21.3;;;14.1;;
61570;SDS011;47463;49.884;10.010;2022-10-20T05:15:00;21.3;;;14.1;;
61570;SDS011;47463;49.884;10.010;2022-10-20T05:20:00;20.6;;;15.1;;
61570;SDS011;47463;49.884;10.010;2022-10-20T05:25:00;23.8;;;14.7;;
61570;SDS011;47463;49.884;10.010;2022-10-20T05:30:00;23.2;;;15.3;;
61570;SDS011;47463;49.884;10.010;2022-10-20T05:35:00;23.4;;;14.6;;
61570;SDS011;47463;49.884;10.010;2022-10-20T05:40:00;19.4;;;14.2;;
61570;SDS011;47463;49.884;10.010;2022-10-20T05:45:00;19.4;;;14.2;;
61570;SDS011;47463;49.884;10.010;2022-10-20T05:50:00;19.5;;;13.7;;
61570;SDS011;47463;49.884;10.010;2022-10-20T05:55:00;22.1;;;13.6;;
61570;SDS011;47463;49.884;10.010;2022-10-20T06:00:00;24;;;15;;
61570;SDS011;47463;49.884;10.010;2022-10-20T06:05:00;22.4;;;13.2;;
61570;SDS011;47463;49.884;10.010;2022-10-20T06:10:00;27.3;;;16.2;;
61570;SDS011;47463;49.884;10.010;2022-10-20T06:15:00;27.3;;;16.2;;
61570;SDS011;47463;49.884;10.010;2022-10-20T06:20:00;24;;;12.8;;
61570;SDS011;47463;49.884;10.010;2022-10-20T06:25:00;20.6;;;14;;
61570;SDS011;47463;49.884;10.010;2022-10-20T06:30:00;20.3;;;12.6;;
61570;SDS011;47463;49.884;10.010;2022-10-20T06:35:00;19.1;;;12.5;;
61570;SDS011;47463;49.884;10.010;2022-10-20T06:40:00;17.3;;;11.4;;
61570;SDS011;47463;49.884;10.010;2022-10-20T06:45:00;17.3;;;11.4;;
61570;SDS011;47463;49.884;10.010;2022-10-20T06:50:00;16.6;;;11.5;;
61570;SDS011;47463;49.884;10.010;2022-10-20T06:55:00;18;;;11.6;;
61570;SDS011;47463;49.884;10.010;2022-10-20T07:00:00;13.7;;;10.7;;
61570;SDS011;47463;49.884;10.010;2022-10-20T07:05:00;15.8;;;11.4;;
61570;SDS011;47463;49.884;10.010;2022-10-20T07:10:00;11.5;;;10.1;;
61570;SDS011;47463;49.884;10.010;2022-10-20T07:15:00;11.5;;;10.1;;
61570;SDS011;47463;49.884;10.010;2022-10-20T07:20:00;13.5;;;10.1;;
61570;SDS011;47463;49.884;10.010;2022-10-20T07:25:00;12.1;;;9.8;;
61570;SDS011;47463;49.884;10.010;2022-10-20T07:30:00;14.6;;;10.3;;
61570;SDS011;47463;49.884;10.010;2022-10-20T07:35:00;14.2;;;10.9;;
61570;SDS011;47463;49.884;10.010;2022-10-20T07:40:00;12.5;;;9.8;;
61570;SDS011;47463;49.884;10.010;2022-10-20T07:45:00;12.5;;;9.8;;
61570;SDS011;47463;49.884;10.010;2022-10-20T07:50:00;13.1;;;8.9;;
61570;SDS011;47463;49.884;10.010;2022-10-20T07:55:00;11.8;;;9.2;;
61570;SDS011;47463;49.884;10.010;2022-10-20T08:00:00;13;;;8.7;;
61570;SDS011;47463;49.884;10.010;2022-10-20T08:05:00;17.5;;;10.7;;
61570;SDS011;47463;49.884;10.010;2022-10-20T08:10:00;16;;;12.2;;
61570;SDS011;47463;49.884;10.010;2022-10-20T08:15:00;16;;;12.2;;
61570;SDS011;47463;49.884;10.010;2022-10-20T08:20:00;18.2;;;12.7;;
61570;SDS011;47463;49.884;10.010;2022-10-20T08:25:00;15.1;;;12.2;;
61570;SDS011;47463;49.884;10.010;2022-10-20T08:30:00;16.6;;;12.3;;
61570;SDS011;47463;49.884;10.010;2022-10-20T08:35:00;15.6;;;11.7;;
61570;SDS011;47463;49.884;10.010;2022-10-20T08:40:00;18.6;;;11.9;;
61570;SDS011;47463;49.884;10.010;2022-10-20T08:45:00;18.6;;;11.9;;
61570;SDS011;47463;49.884;10.010;2022-10-20T08:50:00;13.4;;;11.2;;
61570;SDS011;47463;49.884;10.010;2022-10-20T08:55:00;16.8;;;11.3;;
61570;SDS011;47463;49.884;10.010;2022-10-20T09:00:00;14.8;;;11.7;;
61570;SDS011;47463;49.884;10.010;2022-10-20T09:05:00;19.7;;;13;;
61570;SDS011;47463;49.884;10.010;2022-10-20T09:10:02;17.3;;;13.3;;
61570;SDS011;47463;49.884;10.010;2022-10-20T09:15:00;17.3;;;13.3;;
61570;SDS011;47463;49.884;10.010;2022-10-20T09:20:00;15.7;;;13.1;;
61570;SDS011;47463;49.884;10.010;2022-10-20T09:25:00;20.4;;;12.8;;
61570;SDS011;47463;49.884;10.010;2022-10-20T09:30:11;17.3;;;12.3;;
61570;SDS011;47463;49.884;10.010;2022-10-20T09:35:10;18.9;;;13.2;;
61570;SDS011;47463;49.884;10.010;2022-10-20T09:40:00;20.7;;;12.1;;
61570;SDS011;47463;49.884;10.010;2022-10-20T09:45:00;20.7;;;12.1;;
61570;SDS011;47463;49.884;10.010;2022-10-20T09:50:00;19.9;;;13.1;;
61570;SDS011;47463;49.884;10.010;2022-10-20T09:55:01;19.8;;;13.2;;
61570;SDS011;47463;49.884;10.010;2022-10-20T10:00:00;16.2;;;12.4;;
61570;SDS011;47463;49.884;10.010;2022-10-20T10:05:16;19.3;;;13;;
61570;SDS011;47463;49.884;10.010;2022-10-20T10:10:01;19.5;;;12.9;;
61570;SDS011;47463;49.884;10.010;2022-10-20T10:15:00;19.5;;;12.9;;
61570;SDS011;47463;49.884;10.010;2022-10-20T10:20:00;20.2;;;13.5;;
61570;SDS011;47463;49.884;10.010;2022-10-20T10:25:00;20.1;;;12.6;;
61570;SDS011;47463;49.884;10.010;2022-10-20T10:30:18;16.1;;;11.9;;
61570;SDS011;47463;49.884;10.010;2022-10-20T10:35:03;19.8;;;13.3;;
61570;SDS011;47463;49.884;10.010;2022-10-20T10:40:00;19.6;;;12.9;;
61570;SDS011;47463;49.884;10.010;2022-10-20T10:45:02;19.6;;;12.9;;
61570;SDS011;47463;49.884;10.010;2022-10-20T10:50:02;20.7;;;13.9;;
61570;SDS011;47463;49.884;10.010;2022-10-20T10:55:02;20.3;;;14.8;;
61570;SDS011;47463;49.884;10.010;2022-10-20T11:00:01;19.1;;;12.4;;
61570;SDS011;47463;49.884;10.010;2022-10-20T11:05:04;21.1;;;13.1;;
61570;SDS011;47463;49.884;10.010;2022-10-20T11:10:02;17.3;;;13;;
61570;SDS011;47463;49.884;10.010;2022-10-20T11:15:02;17.3;;;13;;
61570;SDS011;47463;49.884;10.010;2022-10-20T11:20:18;18.5;;;13;;
61570;SDS011;47463;49.884;10.010;2022-10-20T11:25:01;20.8;;;13.3;;
61570;SDS011;47463;49.884;10.010;2022-10-20T11:30:00;19.9;;;13;;
61570;SDS011;47463;49.884;10.010;2022-10-20T11:35:01;20.1;;;13.4;;
61570;SDS011;47463;49.884;10.010;2022-10-20T11:40:03;18.6;;;12.7;;
61570;SDS011;47463;49.884;10.010;2022-10-20T11:45:00;18.6;;;12.7;;
61570;SDS011;47463;49.884;10.010;2022-10-20T11:50:01;22.2;;;13.6;;
61570;SDS011;47463;49.884;10.010;2022-10-20T11:56:08;20.1;;;12.3;;
61570;SDS011;47463;49.884;10.010;2022-10-20T12:00:02;21.4;;;13.2;;
61570;SDS011;47463;49.884;10.010;2022-10-20T12:05:04;18.7;;;13.5;;
61570;SDS011;47463;49.884;10.010;2022-10-20T12:10:02;20.6;;;13.4;;
61570;SDS011;47463;49.884;10.010;2022-10-20T12:15:00;20.6;;;13.4;;
61570;SDS011;47463;49.884;10.010;2022-10-20T12:21:04;21.7;;;13.5;;
61570;SDS011;47463;49.884;10.010;2022-10-20T12:26:22;19.2;;;12.2;;
61570;SDS011;47463;49.884;10.010;2022-10-20T12:30:01;18.4;;;13.5;;
61570;SDS011;47463;49.884;10.010;2022-10-20T12:35:00;22.4;;;12.6;;
61570;SDS011;47463;49.884;10.010;2022-10-20T12:40:03;17.5;;;13.2;;
61570;SDS011;47463;49.884;10.010;2022-10-20T12:45:00;17.5;;;13.2;;
61570;SDS011;47463;49.884;10.010;2022-10-20T12:50:00;17.2;;;12.9;;
61570;SDS011;47463;49.884;10.010;2022-10-20T12:55:02;17.2;;;12.3;;
61570;SDS011;47463;49.884;10.010;2022-10-20T13:00:00;16.3;;;12.7;;
61570;SDS011;47463;49.884;10.010;2022-10-20T13:05:01;16.6;;;12.3;;
61570;SDS011;47463;49.884;10.010;2022-10-20T13:10:00;16;;;12.2;;
61570;SDS011;47463;49.884;10.010;2022-10-20T13:15:01;16;;;12.2;;
61570;SDS011;47463;49.884;10.010;2022-10-20T13:20:00;17.9;;;13.4;;
61570;SDS011;47463;49.884;10.010;2022-10-20T13:25:00;22.4;;;12.7;;
61570;SDS011;47463;49.884;10.010;2022-10-20T13:30:00;17.5;;;13.2;;
61570;SDS011;47463;49.884;10.010;2022-10-20T13:35:00;16.4;;;12.5;;
61570;SDS011;47463;49.884;10.010;2022-10-20T13:40:02;16.9;;;11.6;;
61570;SDS011;47463;49.884;10.010;2022-10-20T13:45:03;16.9;;;11.6;;
61570;SDS011;47463;49.884;10.010;2022-10-20T13:50:00;19.7;;;13.1;;
61570;SDS011;47463;49.884;10.010;2022-10-20T13:55:00;19.6;;;12.6;;
61570;SDS011;47463;49.884;10.010;2022-10-20T14:00:00;19.5;;;13.6;;
61570;SDS011;47463;49.884;10.010;2022-10-20T14:05:00;18.8;;;12.9;;
61570;SDS011;47463;49.884;10.010;2022-10-20T14:10:00;15.6;;;12;;
61570;SDS011;47463;49.884;10.010;2022-10-20T14:15:00;15.6;;;12;;
61570;SDS011;47463;49.884;10.010;2022-10-20T14:20:07;18.8;;;12.4;;
61570;SDS011;47463;49.884;10.010;2022-10-20T14:25:00;16.4;;;12;;
61570;SDS011;47463;49.884;10.010;2022-10-20T14:30:02;17.7;;;12.9;;
61570;SDS011;47463;49.884;10.010;2022-10-20T14:35:01;18;;;12.4;;
61570;SDS011;47463;49.884;10.010;2022-10-20T14:40:00;16.9;;;12;;
61570;SDS011;47463;49.884;10.010;2022-10-20T14:45:00;16.9;;;12;;
61570;SDS011;47463;49.884;10.010;2022-10-20T14:50:00;18.3;;;13.1;;
61570;SDS011;47463;49.884;10.010;2022-10-20T14:55:00;22.5;;;14.1;;
61570;SDS011;47463;49.884;10.010;2022-10-20T15:00:00;21;;;14.6;;
61570;SDS011;47463;49.884;10.010;2022-10-20T15:05:19;24.3;;;14.8;;
61570;SDS011;47463;49.884;10.010;2022-10-20T15:10:05;24.2;;;15.8;;
61570;SDS011;47463;49.884;10.010;2022-10-20T15:15:02;24.2;;;15.8;;
61570;SDS011;47463;49.884;10.010;2022-10-20T15:20:27;18.6;;;14.1;;
61570;SDS011;47463;49.884;10.010;2022-10-20T15:25:00;19.2;;;15.5;;
61570;SDS011;47463;49.884;10.010;2022-10-20T15:30:00;24.1;;;16.4;;
61570;SDS011;47463;49.884;10.010;2022-10-20T15:35:00;24;;;16.9;;
61570;SDS011;47463;49.884;10.010;2022-10-20T15:40:00;24.1;;;16.8;;
61570;SDS011;47463;49.884;10.010;2022-10-20T15:45:00;24.1;;;16.8;;
61570;SDS011;47463;49.884;10.010;2022-10-20T15:50:00;26.5;;;18;;
61570;SDS011;47463;49.884;10.010;2022-10-20T15:55:00;24.9;;;17;;
61570;SDS011;47463;49.884;10.010;2022-10-20T16:00:00;26.5;;;15.4;;
61570;SDS011;47463;49.884;10.010;2022-10-20T16:05:00;21.4;;;16;;
61570;SDS011;47463;49.884;10.010;2022-10-20T16:10:00;20.9;;;15.2;;
61570;SDS011;47463;49.884;10.010;2022-10-20T16:15:00;20.9;;;15.2;;
61570;SDS011;47463;49.884;10.010;2022-10-20T16:20:00;22.7;;;16.6;;
61570;SDS011;47463;49.884;10.010;2022-10-20T16:25:00;20.8;;;15.1;;
61570;SDS011;47463;49.884;10.010;2022-10-20T16:30:00;22.3;;;16.2;;
61570;SDS011;47463;49.884;10.010;2022-10-20T16:35:00;27.6;;;16.2;;
61570;SDS011;47463;49.884;10.010;2022-10-20T16:40:00;20;;;15.1;;
61570;SDS011;47463;49.884;10.010;2022-10-20T16:45:00;20;;;15.1;;
61570;SDS011;47463;49.884;10.010;2022-10-20T16:50:00;22.4;;;15.7;;
61570;SDS011;47463;49.884;10.010;2022-10-20T16:55:00;25.8;;;16.7;;
61570;SDS011;47463;49.884;10.010;2022-10-20T17:00:00;24;;;16.5;;
61570;SDS011;47463;49.884;10.010;2022-10-20T17:05:00;23.5;;;16.4;;
61570;SDS011;47463;49.884;10.010;2022-10-20T17:10:00;23;;;16.5;;
61570;SDS011;47463;49.884;10.010;2022-10-20T17:15:00;23;;;16.5;;
61570;SDS011;47463;49.884;10.010;2022-10-20T17:20:00;22;;;16.9;;
61570;SDS011;47463;49.884;10.010;2022-10-20T17:25:00;24.2;;;16.7;;
61570;SDS011;47463;49.884;10.010;2022-10-20T17:30:00;24.8;;;16.2;;
61570;SDS011;47463;49.884;10.010;2022-10-20T17:35:00;22.5;;;15.6;;
61570;SDS011;47463;49.884;10.010;2022-10-20T17:40:00;27.8;;;17.7;;
61570;SDS011;47463;49.884;10.010;2022-10-20T17:45:00;27.8;;;17.7;;
61570;SDS011;47463;49.884;10.010;2022-10-20T17:50:00;25.7;;;16.4;;
61570;SDS011;47463;49.884;10.010;2022-10-20T17:55:00;20.7;;;14.4;;
61570;SDS011;47463;49.884;10.010;2022-10-20T18:00:00;20.9;;;14.1;;
61570;SDS011;47463;49.884;10.010;2022-10-20T18:05:00;24.1;;;16;;
61570;SDS011;47463;49.884;10.010;2022-10-20T18:10:00;20.8;;;15.3;;
61570;SDS011;47463;49.884;10.010;2022-10-20T18:15:00;20.8;;;15.3;;
61570;SDS011;47463;49.884;10.010;2022-10-20T18:20:00;22.5;;;15.8;;
61570;SDS011;47463;49.884;10.010;2022-10-20T18:25:00;23.8;;;16;;
61570;SDS011;47463;49.884;10.010;2022-10-20T18:30:00;22.7;;;15.6;;
61570;SDS011;47463;49.884;10.010;2022-10-20T18:35:00;22.4;;;15.5;;
61570;SDS011;47463;49.884;10.010;2022-10-20T18:40:00;22.5;;;16.2;;
61570;SDS011;47463;49.884;10.010;2022-10-20T18:45:00;22.5;;;16.2;;
61570;SDS011;47463;49.884;10.010;2022-10-20T18:50:00;23;;;16.2;;
61570;SDS011;47463;49.884;10.010;2022-10-20T18:55:00;22.2;;;16;;
61570;SDS011;47463;49.884;10.010;2022-10-20T19:00:00;23.5;;;17;;
61570;SDS011;47463;49.884;10.010;2022-10-20T19:05:00;29.2;;;17.9;;
61570;SDS011;47463;49.884;10.010;2022-10-20T19:10:00;24.2;;;15.6;;
61570;SDS011;47463;49.884;10.010;2022-10-20T19:15:00;24.2;;;15.6;;
61570;SDS011;47463;49.884;10.010;2022-10-20T19:20:00;26.9;;;16.4;;
61570;SDS011;47463;49.884;10.010;2022-10-20T19:25:00;23.5;;;15.7;;
61570;SDS011;47463;49.884;10.010;2022-10-20T19:30:00;27;;;17.4;;
61570;SDS011;47463;49.884;10.010;2022-10-20T19:35:00;26.2;;;16.2;;
61570;SDS011;47463;49.884;10.010;2022-10-20T19:40:00;22.5;;;16.3;;
61570;SDS011;47463;49.884;10.010;2022-10-20T19:45:00;22.5;;;16.3;;
61570;SDS011;47463;49.884;10.010;2022-10-20T19:50:00;26.8;;;17.6;;
61570;SDS011;47463;49.884;10.010;2022-10-20T19:55:00;25.3;;;16.7;;
61570;SDS011;47463;49.884;10.010;2022-10-20T20:00:00;21.6;;;15.3;;
61570;SDS011;47463;49.884;10.010;2022-10-20T20:05:00;24.9;;;18.2;;
61570;SDS011;47463;49.884;10.010;2022-10-20T20:10:00;24.7;;;17.9;;
61570;SDS011;47463;49.884;10.010;2022-10-20T20:15:00;24.7;;;17.9;;
61570;SDS011;47463;49.884;10.010;2022-10-20T20:20:00;29.8;;;19.5;;
61570;SDS011;47463;49.884;10.010;2022-10-20T20:25:00;29.4;;;20.3;;
61570;SDS011;47463;49.884;10.010;2022-10-20T20:30:00;33.2;;;21.4;;
61570;SDS011;47463;49.884;10.010;2022-10-20T20:35:00;35.1;;;22.2;;
61570;SDS011;47463;49.884;10.010;2022-10-20T20:40:00;32;;;22.2;;
61570;SDS011;47463;49.884;10.010;2022-10-20T20:45:00;32;;;22.2;;
61570;SDS011;47463;49.884;10.010;2022-10-20T20:50:00;43.1;;;26.4;;
61570;SDS011;47463;49.884;10.010;2022-10-20T20:55:00;37.1;;;23.7;;
61570;SDS011;47463;49.884;10.010;2022-10-20T21:00:00;36.1;;;22.8;;
61570;SDS011;47463;49.884;10.010;2022-10-20T21:05:00;37.3;;;24.5;;
61570;SDS011;47463;49.884;10.010;2022-10-20T21:10:00;36.4;;;22.5;;
61570;SDS011;47463;49.884;10.010;2022-10-20T21:15:00;36.4;;;22.5;;
61570;SDS011;47463;49.884;10.010;2022-10-20T21:20:00;32;;;21.3;;
61570;SDS011;47463;49.884;10.010;2022-10-20T21:25:00;30.8;;;20.5;;
61570;SDS011;47463;49.884;10.010;2022-10-20T21:30:00;29.2;;;19.9;;
61570;SDS011;47463;49.884;10.010;2022-10-20T21:35:00;31.7;;;20.4;;
61570;SDS011;47463;49.884;10.010;2022-10-20T21:40:00;27.5;;;18.6;;
61570;SDS011;47463;49.884;10.010;2022-10-20T21:45:00;27.5;;;18.6;;
61570;SDS011;47463;49.884;10.010;2022-10-20T21:50:00;28.9;;;19.3;;
61570;SDS011;47463;49.884;10.010;2022-10-20T21:55:00;26.4;;;18.8;;
61570;SDS011;47463;49.884;10.010;2022-10-20T22:00:00;27.5;;;18.9;;
61570;SDS011;47463;49.884;10.010;2022-10-20T22:05:00;30.8;;;19.6;;
61570;SDS011;47463;49.884;10.010;2022-10-20T22:10:00;27.6;;;19.5;;
61570;SDS011;47463;49.884;10.010;2022-10-20T22:15:00;27.6;;;19.5;;
61570;SDS011;47463;49.884;10.010;2022-10-20T22:20:00;28.5;;;19.1;;
61570;SDS011;47463;49.884;10.010;2022-10-20T22:25:00;30.4;;;20.3;;
61570;SDS011;47463;49.884;10.010;2022-10-20T22:30:00;31.4;;;19.7;;
61570;SDS011;47463;49.884;10.010;2022-10-20T22:35:00;27.5;;;19;;
61570;SDS011;47463;49.884;10.010;2022-10-20T22:40:00;33;;;20.1;;
61570;SDS011;47463;49.884;10.010;2022-10-20T22:45:00;33;;;20.1;;
61570;SDS011;47463;49.884;10.010;2022-10-20T22:50:00;28.4;;;18.3;;
61570;SDS011;47463;49.884;10.010;2022-10-20T22:55:00;27.6;;;19.1;;
61570;SDS011;47463;49.884;10.010;2022-10-20T23:00:00;29;;;18.7;;
61570;SDS011;47463;49.884;10.010;2022-10-20T23:05:00;30.2;;;19.7;;
61570;SDS011;47463;49.884;10.010;2022-10-20T23:10:00;40.3;;;22;;
61570;SDS011;47463;49.884;10.010;2022-10-20T23:15:00;40.3;;;22;;
61570;SDS011;47463;49.884;10.010;2022-10-20T23:20:00;33.6;;;20.9;;
61570;SDS011;47463;49.884;10.010;2022-10-20T23:25:00;25.2;;;18.1;;
61570;SDS011;47463;49.884;10.010;2022-10-20T23:30:00;29.6;;;19.4;;
61570;SDS011;47463;49.884;10.010;2022-10-20T23:35:00;24.8;;;17.5;;
61570;SDS011;47463;49.884;10.010;2022-10-20T23:40:00;27;;;17.6;;
61570;SDS011;47463;49.884;10.010;2022-10-20T23:45:00;27;;;17.6;;
61570;SDS011;47463;49.884;10.010;2022-10-20T23:50:00;30.7;;;18.8;;
61570;SDS011;47463;49.884;10.010;2022-10-20T23:55:00;27.9;;;18.2;;
